sensor_id;sensor_type;location;lat;lon;timestamp;P1;durP1;ratioP1;P2;durP2;ratioP2
38182;SDS011;23991;52.430;10.586;2023-07-20T00:02:17;2.90;;;1.35;;
38182;SDS011;23991;52.430;10.586;2023-07-20T00:04:43;2.22;;;1.15;;
38182;SDS011;23991;52.430;10.586;2023-07-20T00:07:08;1.23;;;1.00;;
38182;SDS011;23991;52.430;10.586;2023-07-20T00:09:35;1.80;;;1.20;;
38182;SDS011;23991;52.430;10.586;2023-07-20T00:12:01;2.78;;;1.40;;
38182;SDS011;23991;52.430;10.586;2023-07-20T00:14:28;3.47;;;1.30;;
38182;SDS011;23991;52.430;10.586;2023-07-20T00:16:56;2.58;;;1.42;;
38182;SDS011;23991;52.430;10.586;2023-07-20T00:19:23;3.80;;;1.25;;
38182;SDS011;23991;52.430;10.586;2023-07-20T00:21:53;2.58;;;1.30;;
38182;SDS011;23991;52.430;10.586;2023-07-20T00:24:24;2.05;;;1.27;;
38182;SDS011;23991;52.430;10.586;2023-07-20T00:26:50;2.03;;;1.30;;
38182;SDS011;23991;52.430;10.586;2023-07-20T00:29:16;1.40;;;1.10;;
38182;SDS011;23991;52.430;10.586;2023-07-20T00:31:42;2.60;;;1.42;;
38182;SDS011;23991;52.430;10.586;2023-07-20T00:34:08;2.60;;;1.30;;
38182;SDS011;23991;52.430;10.586;2023-07-20T00:36:37;3.88;;;1.40;;
38182;SDS011;23991;52.430;10.586;2023-07-20T00:39:04;4.78;;;1.40;;
38182;SDS011;23991;52.430;10.586;2023-07-20T00:41:30;1.95;;;1.30;;
38182;SDS011;23991;52.430;10.586;2023-07-20T00:43:56;2.30;;;1.30;;
38182;SDS011;23991;52.430;10.586;2023-07-20T00:46:24;2.15;;;1.10;;
38182;SDS011;23991;52.430;10.586;2023-07-20T00:48:50;3.20;;;1.27;;
38182;SDS011;23991;52.430;10.586;2023-07-20T00:51:17;1.95;;;1.35;;
38182;SDS011;23991;52.430;10.586;2023-07-20T00:53:43;1.95;;;1.30;;
38182;SDS011;23991;52.430;10.586;2023-07-20T00:56:09;1.85;;;1.20;;
38182;SDS011;23991;52.430;10.586;2023-07-20T00:58:36;2.75;;;1.30;;
38182;SDS011;23991;52.430;10.586;2023-07-20T01:01:02;1.50;;;1.30;;
38182;SDS011;23991;52.430;10.586;2023-07-20T01:03:28;2.20;;;1.20;;
38182;SDS011;23991;52.430;10.586;2023-07-20T01:06:14;2.28;;;1.30;;
38182;SDS011;23991;52.430;10.586;2023-07-20T01:09:34;3.33;;;1.48;;
38182;SDS011;23991;52.430;10.586;2023-07-20T01:14:50;2.60;;;1.48;;
38182;SDS011;23991;52.430;10.586;2023-07-20T01:17:24;2.35;;;1.40;;
38182;SDS011;23991;52.430;10.586;2023-07-20T01:19:51;1.98;;;1.30;;
38182;SDS011;23991;52.430;10.586;2023-07-20T01:28:40;2.83;;;1.50;;
38182;SDS011;23991;52.430;10.586;2023-07-20T01:33:44;2.47;;;1.63;;
38182;SDS011;23991;52.430;10.586;2023-07-20T01:36:12;1.67;;;1.35;;
38182;SDS011;23991;52.430;10.586;2023-07-20T01:38:41;3.10;;;1.13;;
38182;SDS011;23991;52.430;10.586;2023-07-20T01:41:07;1.98;;;1.30;;
38182;SDS011;23991;52.430;10.586;2023-07-20T01:43:34;2.83;;;1.35;;
38182;SDS011;23991;52.430;10.586;2023-07-20T01:46:00;1.55;;;1.27;;
38182;SDS011;23991;52.430;10.586;2023-07-20T01:48:26;2.25;;;1.20;;
38182;SDS011;23991;52.430;10.586;2023-07-20T01:50:52;3.15;;;1.45;;
38182;SDS011;23991;52.430;10.586;2023-07-20T01:53:18;2.58;;;1.50;;
38182;SDS011;23991;52.430;10.586;2023-07-20T01:55:44;2.13;;;1.40;;
38182;SDS011;23991;52.430;10.586;2023-07-20T01:58:10;1.80;;;1.42;;
38182;SDS011;23991;52.430;10.586;2023-07-20T02:00:38;2.17;;;1.13;;
38182;SDS011;23991;52.430;10.586;2023-07-20T02:03:05;1.83;;;1.23;;
38182;SDS011;23991;52.430;10.586;2023-07-20T02:05:30;2.38;;;1.67;;
38182;SDS011;23991;52.430;10.586;2023-07-20T02:07:56;1.65;;;1.27;;
38182;SDS011;23991;52.430;10.586;2023-07-20T02:10:31;3.03;;;1.30;;
38182;SDS011;23991;52.430;10.586;2023-07-20T02:13:03;1.50;;;1.30;;
38182;SDS011;23991;52.430;10.586;2023-07-20T02:15:29;2.10;;;1.48;;
38182;SDS011;23991;52.430;10.586;2023-07-20T02:17:56;2.33;;;1.25;;
38182;SDS011;23991;52.430;10.586;2023-07-20T02:20:23;1.83;;;1.40;;
38182;SDS011;23991;52.430;10.586;2023-07-20T02:22:51;2.85;;;1.30;;
38182;SDS011;23991;52.430;10.586;2023-07-20T02:25:23;2.40;;;1.25;;
38182;SDS011;23991;52.430;10.586;2023-07-20T02:27:50;2.22;;;1.35;;
38182;SDS011;23991;52.430;10.586;2023-07-20T02:30:15;2.30;;;1.52;;
38182;SDS011;23991;52.430;10.586;2023-07-20T02:32:43;2.75;;;1.40;;
38182;SDS011;23991;52.430;10.586;2023-07-20T02:35:15;3.05;;;1.40;;
38182;SDS011;23991;52.430;10.586;2023-07-20T02:37:41;2.72;;;1.30;;
38182;SDS011;23991;52.430;10.586;2023-07-20T02:40:09;2.10;;;1.35;;
38182;SDS011;23991;52.430;10.586;2023-07-20T02:42:41;3.28;;;1.58;;
38182;SDS011;23991;52.430;10.586;2023-07-20T02:45:14;1.98;;;1.23;;
38182;SDS011;23991;52.430;10.586;2023-07-20T02:47:41;3.75;;;1.85;;
38182;SDS011;23991;52.430;10.586;2023-07-20T02:50:07;3.50;;;1.20;;
38182;SDS011;23991;52.430;10.586;2023-07-20T02:52:38;1.55;;;1.20;;
38182;SDS011;23991;52.430;10.586;2023-07-20T02:55:04;5.90;;;1.58;;
38182;SDS011;23991;52.430;10.586;2023-07-20T02:57:30;1.85;;;1.10;;
38182;SDS011;23991;52.430;10.586;2023-07-20T03:00:02;2.22;;;1.52;;
38182;SDS011;23991;52.430;10.586;2023-07-20T03:02:33;1.85;;;1.25;;
38182;SDS011;23991;52.430;10.586;2023-07-20T03:05:03;2.10;;;1.20;;
38182;SDS011;23991;52.430;10.586;2023-07-20T03:07:32;1.60;;;1.23;;
38182;SDS011;23991;52.430;10.586;2023-07-20T03:09:58;2.15;;;1.30;;
38182;SDS011;23991;52.430;10.586;2023-07-20T03:12:47;2.08;;;1.30;;
38182;SDS011;23991;52.430;10.586;2023-07-20T03:15:22;2.30;;;1.25;;
38182;SDS011;23991;52.430;10.586;2023-07-20T03:17:51;2.15;;;1.20;;
38182;SDS011;23991;52.430;10.586;2023-07-20T03:20:19;2.92;;;1.30;;
38182;SDS011;23991;52.430;10.586;2023-07-20T03:22:46;4.15;;;1.30;;
38182;SDS011;23991;52.430;10.586;2023-07-20T03:25:15;2.92;;;1.20;;
38182;SDS011;23991;52.430;10.586;2023-07-20T03:27:44;1.70;;;1.25;;
38182;SDS011;23991;52.430;10.586;2023-07-20T03:30:10;1.60;;;1.17;;
38182;SDS011;23991;52.430;10.586;2023-07-20T03:32:38;2.33;;;1.23;;
38182;SDS011;23991;52.430;10.586;2023-07-20T03:35:07;1.85;;;1.58;;
38182;SDS011;23991;52.430;10.586;2023-07-20T03:37:37;1.42;;;1.10;;
38182;SDS011;23991;52.430;10.586;2023-07-20T03:40:05;4.93;;;1.27;;
38182;SDS011;23991;52.430;10.586;2023-07-20T03:42:32;1.75;;;1.30;;
38182;SDS011;23991;52.430;10.586;2023-07-20T03:45:07;2.05;;;1.38;;
38182;SDS011;23991;52.430;10.586;2023-07-20T03:47:36;2.08;;;1.20;;
38182;SDS011;23991;52.430;10.586;2023-07-20T03:50:02;2.53;;;1.05;;
38182;SDS011;23991;52.430;10.586;2023-07-20T03:52:31;2.97;;;1.38;;
38182;SDS011;23991;52.430;10.586;2023-07-20T03:55:03;2.63;;;1.48;;
38182;SDS011;23991;52.430;10.586;2023-07-20T03:57:29;3.30;;;1.40;;
38182;SDS011;23991;52.430;10.586;2023-07-20T03:59:58;2.00;;;1.30;;
38182;SDS011;23991;52.430;10.586;2023-07-20T04:02:24;2.00;;;1.40;;
38182;SDS011;23991;52.430;10.586;2023-07-20T04:04:53;1.83;;;1.23;;
38182;SDS011;23991;52.430;10.586;2023-07-20T04:07:22;3.03;;;1.30;;
38182;SDS011;23991;52.430;10.586;2023-07-20T04:09:49;2.55;;;1.35;;
38182;SDS011;23991;52.430;10.586;2023-07-20T04:12:17;3.38;;;1.55;;
38182;SDS011;23991;52.430;10.586;2023-07-20T04:14:43;1.63;;;1.25;;
38182;SDS011;23991;52.430;10.586;2023-07-20T04:17:08;1.90;;;1.17;;
38182;SDS011;23991;52.430;10.586;2023-07-20T04:19:38;1.20;;;1.10;;
38182;SDS011;23991;52.430;10.586;2023-07-20T04:22:07;2.47;;;1.27;;
38182;SDS011;23991;52.430;10.586;2023-07-20T04:24:33;1.95;;;1.10;;
38182;SDS011;23991;52.430;10.586;2023-07-20T04:26:59;4.05;;;1.23;;
38182;SDS011;23991;52.430;10.586;2023-07-20T04:29:26;1.95;;;1.48;;
38182;SDS011;23991;52.430;10.586;2023-07-20T04:32:00;1.75;;;1.23;;
38182;SDS011;23991;52.430;10.586;2023-07-20T04:34:32;1.90;;;1.40;;
38182;SDS011;23991;52.430;10.586;2023-07-20T04:37:06;2.00;;;1.40;;
38182;SDS011;23991;52.430;10.586;2023-07-20T04:39:33;1.73;;;1.40;;
38182;SDS011;23991;52.430;10.586;2023-07-20T04:42:10;1.40;;;1.20;;
38182;SDS011;23991;52.430;10.586;2023-07-20T04:44:36;4.93;;;1.60;;
38182;SDS011;23991;52.430;10.586;2023-07-20T04:47:07;5.25;;;1.40;;
38182;SDS011;23991;52.430;10.586;2023-07-20T04:49:33;1.65;;;1.35;;
38182;SDS011;23991;52.430;10.586;2023-07-20T04:52:01;2.67;;;1.30;;
38182;SDS011;23991;52.430;10.586;2023-07-20T04:54:29;1.88;;;1.30;;
38182;SDS011;23991;52.430;10.586;2023-07-20T04:57:11;3.50;;;1.20;;
38182;SDS011;23991;52.430;10.586;2023-07-20T04:59:39;1.58;;;1.30;;
38182;SDS011;23991;52.430;10.586;2023-07-20T05:02:08;1.95;;;1.30;;
38182;SDS011;23991;52.430;10.586;2023-07-20T05:04:37;2.03;;;1.30;;
38182;SDS011;23991;52.430;10.586;2023-07-20T05:07:03;1.83;;;1.30;;
38182;SDS011;23991;52.430;10.586;2023-07-20T05:09:29;2.65;;;1.40;;
38182;SDS011;23991;52.430;10.586;2023-07-20T05:11:55;2.17;;;1.50;;
38182;SDS011;23991;52.430;10.586;2023-07-20T05:14:21;3.50;;;1.35;;
38182;SDS011;23991;52.430;10.586;2023-07-20T05:16:48;2.33;;;1.42;;
38182;SDS011;23991;52.430;10.586;2023-07-20T05:19:15;2.72;;;1.40;;
38182;SDS011;23991;52.430;10.586;2023-07-20T05:24:11;1.85;;;1.35;;
38182;SDS011;23991;52.430;10.586;2023-07-20T05:26:38;4.88;;;1.83;;
38182;SDS011;23991;52.430;10.586;2023-07-20T05:29:04;1.50;;;1.20;;
38182;SDS011;23991;52.430;10.586;2023-07-20T05:31:33;3.35;;;1.30;;
38182;SDS011;23991;52.430;10.586;2023-07-20T05:34:00;2.50;;;1.40;;
38182;SDS011;23991;52.430;10.586;2023-07-20T05:36:25;2.28;;;1.48;;
38182;SDS011;23991;52.430;10.586;2023-07-20T05:38:51;3.70;;;1.30;;
38182;SDS011;23991;52.430;10.586;2023-07-20T05:41:17;2.17;;;1.50;;
38182;SDS011;23991;52.430;10.586;2023-07-20T05:43:45;1.80;;;1.20;;
38182;SDS011;23991;52.430;10.586;2023-07-20T05:46:14;2.85;;;1.10;;
38182;SDS011;23991;52.430;10.586;2023-07-20T05:48:40;4.00;;;1.30;;
38182;SDS011;23991;52.430;10.586;2023-07-20T05:51:06;1.73;;;1.08;;
38182;SDS011;23991;52.430;10.586;2023-07-20T05:53:36;1.65;;;1.27;;
38182;SDS011;23991;52.430;10.586;2023-07-20T05:56:26;1.90;;;1.40;;
38182;SDS011;23991;52.430;10.586;2023-07-20T05:58:51;2.85;;;1.65;;
38182;SDS011;23991;52.430;10.586;2023-07-20T06:01:19;1.80;;;1.27;;
38182;SDS011;23991;52.430;10.586;2023-07-20T06:03:45;1.63;;;1.30;;
38182;SDS011;23991;52.430;10.586;2023-07-20T06:06:11;2.22;;;1.30;;
38182;SDS011;23991;52.430;10.586;2023-07-20T06:08:41;3.97;;;1.52;;
38182;SDS011;23991;52.430;10.586;2023-07-20T06:11:06;2.65;;;1.45;;
38182;SDS011;23991;52.430;10.586;2023-07-20T06:13:33;5.10;;;1.42;;
38182;SDS011;23991;52.430;10.586;2023-07-20T06:15:59;2.40;;;1.67;;
38182;SDS011;23991;52.430;10.586;2023-07-20T06:18:24;2.95;;;1.63;;
38182;SDS011;23991;52.430;10.586;2023-07-20T06:20:53;4.60;;;1.70;;
38182;SDS011;23991;52.430;10.586;2023-07-20T06:23:21;5.60;;;1.70;;
38182;SDS011;23991;52.430;10.586;2023-07-20T06:25:47;3.70;;;2.00;;
38182;SDS011;23991;52.430;10.586;2023-07-20T06:28:12;5.82;;;2.35;;
38182;SDS011;23991;52.430;10.586;2023-07-20T06:30:41;2.95;;;1.83;;
38182;SDS011;23991;52.430;10.586;2023-07-20T06:33:09;4.15;;;1.90;;
38182;SDS011;23991;52.430;10.586;2023-07-20T06:35:35;1.80;;;1.30;;
38182;SDS011;23991;52.430;10.586;2023-07-20T06:38:01;2.83;;;1.45;;
38182;SDS011;23991;52.430;10.586;2023-07-20T06:40:34;4.10;;;1.17;;
38182;SDS011;23991;52.430;10.586;2023-07-20T06:43:03;1.77;;;1.00;;
38182;SDS011;23991;52.430;10.586;2023-07-20T06:45:28;1.17;;;0.80;;
38182;SDS011;23991;52.430;10.586;2023-07-20T06:47:56;1.60;;;0.80;;
38182;SDS011;23991;52.430;10.586;2023-07-20T06:50:21;2.05;;;1.00;;
38182;SDS011;23991;52.430;10.586;2023-07-20T06:52:48;1.02;;;0.70;;
38182;SDS011;23991;52.430;10.586;2023-07-20T06:55:13;1.52;;;0.73;;
38182;SDS011;23991;52.430;10.586;2023-07-20T06:57:40;2.08;;;1.33;;
38182;SDS011;23991;52.430;10.586;2023-07-20T07:00:09;0.70;;;0.70;;
38182;SDS011;23991;52.430;10.586;2023-07-20T07:02:38;2.33;;;0.63;;
38182;SDS011;23991;52.430;10.586;2023-07-20T07:05:05;1.67;;;1.00;;
38182;SDS011;23991;52.430;10.586;2023-07-20T07:07:34;2.05;;;0.70;;
38182;SDS011;23991;52.430;10.586;2023-07-20T07:10:00;2.83;;;1.20;;
38182;SDS011;23991;52.430;10.586;2023-07-20T07:12:29;1.00;;;0.60;;
38182;SDS011;23991;52.430;10.586;2023-07-20T07:14:55;0.73;;;0.63;;
38182;SDS011;23991;52.430;10.586;2023-07-20T07:17:21;1.02;;;0.90;;
38182;SDS011;23991;52.430;10.586;2023-07-20T07:19:46;0.70;;;0.70;;
38182;SDS011;23991;52.430;10.586;2023-07-20T07:22:12;1.08;;;0.80;;
38182;SDS011;23991;52.430;10.586;2023-07-20T07:24:39;2.08;;;0.77;;
38182;SDS011;23991;52.430;10.586;2023-07-20T07:27:07;0.63;;;0.60;;
38182;SDS011;23991;52.430;10.586;2023-07-20T07:29:35;1.80;;;0.90;;
38182;SDS011;23991;52.430;10.586;2023-07-20T07:32:01;2.88;;;0.80;;
38182;SDS011;23991;52.430;10.586;2023-07-20T07:34:26;0.88;;;0.80;;
38182;SDS011;23991;52.430;10.586;2023-07-20T07:36:52;1.27;;;0.77;;
38182;SDS011;23991;52.430;10.586;2023-07-20T07:39:21;1.45;;;0.65;;
38182;SDS011;23991;52.430;10.586;2023-07-20T07:41:49;2.72;;;0.90;;
38182;SDS011;23991;52.430;10.586;2023-07-20T07:44:15;1.48;;;0.85;;
38182;SDS011;23991;52.430;10.586;2023-07-20T07:46:40;0.88;;;0.70;;
38182;SDS011;23991;52.430;10.586;2023-07-20T07:49:06;2.38;;;0.98;;
38182;SDS011;23991;52.430;10.586;2023-07-20T07:51:32;1.42;;;0.90;;
38182;SDS011;23991;52.430;10.586;2023-07-20T07:54:01;1.40;;;0.80;;
38182;SDS011;23991;52.430;10.586;2023-07-20T07:56:26;1.35;;;0.80;;
38182;SDS011;23991;52.430;10.586;2023-07-20T07:58:54;1.45;;;0.80;;
38182;SDS011;23991;52.430;10.586;2023-07-20T08:01:23;0.70;;;0.70;;
38182;SDS011;23991;52.430;10.586;2023-07-20T08:03:49;1.50;;;0.80;;
38182;SDS011;23991;52.430;10.586;2023-07-20T08:06:16;0.90;;;0.75;;
38182;SDS011;23991;52.430;10.586;2023-07-20T08:08:41;1.55;;;0.70;;
38182;SDS011;23991;52.430;10.586;2023-07-20T08:11:07;1.23;;;0.88;;
38182;SDS011;23991;52.430;10.586;2023-07-20T08:13:33;2.13;;;0.80;;
38182;SDS011;23991;52.430;10.586;2023-07-20T08:16:03;1.80;;;1.00;;
38182;SDS011;23991;52.430;10.586;2023-07-20T08:18:31;1.30;;;0.82;;
38182;SDS011;23991;52.430;10.586;2023-07-20T08:20:57;1.17;;;0.70;;
38182;SDS011;23991;52.430;10.586;2023-07-20T08:23:22;2.42;;;0.90;;
38182;SDS011;23991;52.430;10.586;2023-07-20T08:25:48;1.52;;;0.73;;
38182;SDS011;23991;52.430;10.586;2023-07-20T08:28:14;1.52;;;1.00;;
38182;SDS011;23991;52.430;10.586;2023-07-20T08:30:41;1.55;;;0.73;;
38182;SDS011;23991;52.430;10.586;2023-07-20T08:33:10;2.25;;;1.02;;
38182;SDS011;23991;52.430;10.586;2023-07-20T08:35:38;0.85;;;0.70;;
38182;SDS011;23991;52.430;10.586;2023-07-20T08:38:04;2.25;;;0.90;;
38182;SDS011;23991;52.430;10.586;2023-07-20T08:40:30;1.75;;;1.10;;
38182;SDS011;23991;52.430;10.586;2023-07-20T08:42:57;1.92;;;0.98;;
38182;SDS011;23991;52.430;10.586;2023-07-20T08:45:28;2.28;;;0.90;;
38182;SDS011;23991;52.430;10.586;2023-07-20T08:47:57;0.95;;;0.63;;
38182;SDS011;23991;52.430;10.586;2023-07-20T08:50:25;2.15;;;0.90;;
38182;SDS011;23991;52.430;10.586;2023-07-20T08:52:52;2.10;;;0.98;;
38182;SDS011;23991;52.430;10.586;2023-07-20T08:57:49;1.63;;;0.80;;
38182;SDS011;23991;52.430;10.586;2023-07-20T09:00:17;1.98;;;0.90;;
38182;SDS011;23991;52.430;10.586;2023-07-20T09:02:45;1.52;;;0.90;;
38182;SDS011;23991;52.430;10.586;2023-07-20T09:05:11;2.67;;;0.95;;
38182;SDS011;23991;52.430;10.586;2023-07-20T09:07:39;2.30;;;1.00;;
38182;SDS011;23991;52.430;10.586;2023-07-20T09:10:05;1.65;;;0.98;;
38182;SDS011;23991;52.430;10.586;2023-07-20T09:12:33;1.70;;;0.98;;
38182;SDS011;23991;52.430;10.586;2023-07-20T09:15:00;2.37;;;0.90;;
38182;SDS011;23991;52.430;10.586;2023-07-20T09:17:28;2.88;;;1.02;;
38182;SDS011;23991;52.430;10.586;2023-07-20T09:19:54;0.95;;;0.77;;
38182;SDS011;23991;52.430;10.586;2023-07-20T09:22:21;2.88;;;1.00;;
38182;SDS011;23991;52.430;10.586;2023-07-20T09:24:46;0.73;;;0.60;;
38182;SDS011;23991;52.430;10.586;2023-07-20T09:27:12;1.63;;;0.90;;
38182;SDS011;23991;52.430;10.586;2023-07-20T09:29:53;0.60;;;0.60;;
38182;SDS011;23991;52.430;10.586;2023-07-20T09:32:19;1.98;;;0.63;;
38182;SDS011;23991;52.430;10.586;2023-07-20T09:34:45;0.90;;;0.70;;
38182;SDS011;23991;52.430;10.586;2023-07-20T09:37:12;1.63;;;0.80;;
38182;SDS011;23991;52.430;10.586;2023-07-20T09:39:44;1.33;;;0.70;;
38182;SDS011;23991;52.430;10.586;2023-07-20T09:42:11;1.00;;;0.65;;
38182;SDS011;23991;52.430;10.586;2023-07-20T09:44:38;1.67;;;0.90;;
38182;SDS011;23991;52.430;10.586;2023-07-20T09:47:04;1.17;;;0.73;;
38182;SDS011;23991;52.430;10.586;2023-07-20T09:49:30;1.48;;;0.80;;
38182;SDS011;23991;52.430;10.586;2023-07-20T09:51:59;2.05;;;0.93;;
38182;SDS011;23991;52.430;10.586;2023-07-20T09:54:27;1.55;;;0.70;;
38182;SDS011;23991;52.430;10.586;2023-07-20T09:56:54;1.50;;;0.90;;
38182;SDS011;23991;52.430;10.586;2023-07-20T09:59:20;1.08;;;0.80;;
38182;SDS011;23991;52.430;10.586;2023-07-20T10:01:46;2.15;;;0.80;;
38182;SDS011;23991;52.430;10.586;2023-07-20T10:04:14;0.80;;;0.80;;
38182;SDS011;23991;52.430;10.586;2023-07-20T10:06:43;0.80;;;0.70;;
38182;SDS011;23991;52.430;10.586;2023-07-20T10:09:14;0.85;;;0.82;;
38182;SDS011;23991;52.430;10.586;2023-07-20T10:11:43;1.50;;;0.80;;
38182;SDS011;23991;52.430;10.586;2023-07-20T10:14:19;1.00;;;0.70;;
38182;SDS011;23991;52.430;10.586;2023-07-20T10:16:51;1.40;;;0.85;;
38182;SDS011;23991;52.430;10.586;2023-07-20T10:22:16;1.40;;;0.80;;
38182;SDS011;23991;52.430;10.586;2023-07-20T10:24:47;1.20;;;0.80;;
38182;SDS011;23991;52.430;10.586;2023-07-20T10:27:14;1.20;;;0.85;;
38182;SDS011;23991;52.430;10.586;2023-07-20T10:29:40;0.88;;;0.80;;
38182;SDS011;23991;52.430;10.586;2023-07-20T10:32:07;1.45;;;0.70;;
38182;SDS011;23991;52.430;10.586;2023-07-20T10:34:35;1.02;;;0.88;;
38182;SDS011;23991;52.430;10.586;2023-07-20T10:37:00;1.50;;;0.90;;
38182;SDS011;23991;52.430;10.586;2023-07-20T10:39:27;1.92;;;1.02;;
38182;SDS011;23991;52.430;10.586;2023-07-20T10:42:02;1.10;;;0.70;;
38182;SDS011;23991;52.430;10.586;2023-07-20T10:44:31;1.13;;;0.70;;
38182;SDS011;23991;52.430;10.586;2023-07-20T10:47:03;1.52;;;0.80;;
38182;SDS011;23991;52.430;10.586;2023-07-20T10:49:34;1.33;;;0.88;;
38182;SDS011;23991;52.430;10.586;2023-07-20T10:52:03;1.10;;;0.80;;
38182;SDS011;23991;52.430;10.586;2023-07-20T10:56:57;1.08;;;0.90;;
38182;SDS011;23991;52.430;10.586;2023-07-20T10:59:43;1.77;;;0.95;;
38182;SDS011;23991;52.430;10.586;2023-07-20T11:02:17;1.88;;;0.93;;
38182;SDS011;23991;52.430;10.586;2023-07-20T11:04:45;3.05;;;0.90;;
38182;SDS011;23991;52.430;10.586;2023-07-20T11:07:23;1.73;;;0.95;;
38182;SDS011;23991;52.430;10.586;2023-07-20T11:10:23;1.85;;;0.93;;
38182;SDS011;23991;52.430;10.586;2023-07-20T11:18:21;1.45;;;0.80;;
38182;SDS011;23991;52.430;10.586;2023-07-20T11:20:50;0.90;;;0.80;;
38182;SDS011;23991;52.430;10.586;2023-07-20T11:23:20;2.05;;;0.98;;
38182;SDS011;23991;52.430;10.586;2023-07-20T11:25:49;3.47;;;0.90;;
38182;SDS011;23991;52.430;10.586;2023-07-20T11:28:15;1.45;;;0.90;;
38182;SDS011;23991;52.430;10.586;2023-07-20T11:30:40;1.67;;;0.85;;
38182;SDS011;23991;52.430;10.586;2023-07-20T11:33:09;2.47;;;0.80;;
38182;SDS011;23991;52.430;10.586;2023-07-20T11:35:42;0.80;;;0.73;;
38182;SDS011;23991;52.430;10.586;2023-07-20T11:38:12;1.25;;;0.80;;
38182;SDS011;23991;52.430;10.586;2023-07-20T11:40:47;1.25;;;0.88;;
38182;SDS011;23991;52.430;10.586;2023-07-20T11:43:13;3.40;;;0.98;;
38182;SDS011;23991;52.430;10.586;2023-07-20T11:45:40;1.23;;;0.80;;
38182;SDS011;23991;52.430;10.586;2023-07-20T11:48:16;1.30;;;0.75;;
38182;SDS011;23991;52.430;10.586;2023-07-20T11:50:42;1.60;;;1.00;;
38182;SDS011;23991;52.430;10.586;2023-07-20T11:53:08;1.38;;;1.00;;
38182;SDS011;23991;52.430;10.586;2023-07-20T11:55:34;2.03;;;1.10;;
38182;SDS011;23991;52.430;10.586;2023-07-20T11:58:05;2.28;;;1.00;;
38182;SDS011;23991;52.430;10.586;2023-07-20T12:00:38;1.63;;;0.85;;
38182;SDS011;23991;52.430;10.586;2023-07-20T12:03:08;1.75;;;0.90;;
38182;SDS011;23991;52.430;10.586;2023-07-20T12:05:35;1.50;;;0.73;;
38182;SDS011;23991;52.430;10.586;2023-07-20T12:08:02;2.38;;;0.90;;
38182;SDS011;23991;52.430;10.586;2023-07-20T12:10:28;2.00;;;0.98;;
38182;SDS011;23991;52.430;10.586;2023-07-20T12:12:55;1.92;;;0.85;;
38182;SDS011;23991;52.430;10.586;2023-07-20T12:15:28;1.67;;;0.80;;
38182;SDS011;23991;52.430;10.586;2023-07-20T12:17:58;1.05;;;0.75;;
38182;SDS011;23991;52.430;10.586;2023-07-20T12:20:28;2.35;;;1.10;;
38182;SDS011;23991;52.430;10.586;2023-07-20T12:22:57;1.70;;;0.90;;
38182;SDS011;23991;52.430;10.586;2023-07-20T12:25:40;1.48;;;0.80;;
38182;SDS011;23991;52.430;10.586;2023-07-20T12:28:16;1.92;;;1.00;;
38182;SDS011;23991;52.430;10.586;2023-07-20T12:30:44;2.03;;;1.10;;
38182;SDS011;23991;52.430;10.586;2023-07-20T12:33:12;1.20;;;0.90;;
38182;SDS011;23991;52.430;10.586;2023-07-20T12:35:40;1.77;;;1.10;;
38182;SDS011;23991;52.430;10.586;2023-07-20T12:38:06;2.20;;;1.00;;
38182;SDS011;23991;52.430;10.586;2023-07-20T12:40:32;1.38;;;1.00;;
38182;SDS011;23991;52.430;10.586;2023-07-20T12:42:58;2.00;;;0.90;;
38182;SDS011;23991;52.430;10.586;2023-07-20T12:45:44;1.40;;;0.90;;
38182;SDS011;23991;52.430;10.586;2023-07-20T12:48:10;2.55;;;1.10;;
38182;SDS011;23991;52.430;10.586;2023-07-20T12:50:36;2.13;;;1.20;;
38182;SDS011;23991;52.430;10.586;2023-07-20T12:53:01;1.60;;;0.90;;
38182;SDS011;23991;52.430;10.586;2023-07-20T12:55:31;1.90;;;1.00;;
38182;SDS011;23991;52.430;10.586;2023-07-20T12:57:59;1.15;;;1.00;;
38182;SDS011;23991;52.430;10.586;2023-07-20T13:00:25;2.03;;;1.08;;
38182;SDS011;23991;52.430;10.586;2023-07-20T13:02:53;1.77;;;1.00;;
38182;SDS011;23991;52.430;10.586;2023-07-20T13:05:19;2.72;;;1.10;;
38182;SDS011;23991;52.430;10.586;2023-07-20T13:07:44;2.22;;;1.10;;
38182;SDS011;23991;52.430;10.586;2023-07-20T13:10:32;1.90;;;0.93;;
38182;SDS011;23991;52.430;10.586;2023-07-20T13:13:01;1.20;;;0.90;;
38182;SDS011;23991;52.430;10.586;2023-07-20T13:15:31;2.28;;;1.10;;
38182;SDS011;23991;52.430;10.586;2023-07-20T13:17:57;2.35;;;1.02;;
38182;SDS011;23991;52.430;10.586;2023-07-20T13:20:24;3.45;;;1.33;;
38182;SDS011;23991;52.430;10.586;2023-07-20T13:22:50;2.35;;;1.00;;
38182;SDS011;23991;52.430;10.586;2023-07-20T13:25:17;2.13;;;1.15;;
38182;SDS011;23991;52.430;10.586;2023-07-20T13:27:46;1.65;;;0.98;;
38182;SDS011;23991;52.430;10.586;2023-07-20T13:30:15;1.23;;;0.93;;
38182;SDS011;23991;52.430;10.586;2023-07-20T13:32:45;1.98;;;1.10;;
38182;SDS011;23991;52.430;10.586;2023-07-20T13:35:14;1.85;;;0.90;;
38182;SDS011;23991;52.430;10.586;2023-07-20T13:37:39;2.20;;;1.23;;
38182;SDS011;23991;52.430;10.586;2023-07-20T13:40:06;1.95;;;1.10;;
38182;SDS011;23991;52.430;10.586;2023-07-20T13:42:43;2.10;;;1.08;;
38182;SDS011;23991;52.430;10.586;2023-07-20T13:45:11;2.00;;;1.10;;
38182;SDS011;23991;52.430;10.586;2023-07-20T13:47:40;1.15;;;0.98;;
38182;SDS011;23991;52.430;10.586;2023-07-20T13:50:05;2.45;;;0.93;;
38182;SDS011;23991;52.430;10.586;2023-07-20T13:52:32;1.73;;;1.00;;
38182;SDS011;23991;52.430;10.586;2023-07-20T13:54:58;1.52;;;0.95;;
38182;SDS011;23991;52.430;10.586;2023-07-20T13:57:26;2.08;;;1.13;;
38182;SDS011;23991;52.430;10.586;2023-07-20T13:59:55;2.47;;;1.10;;
38182;SDS011;23991;52.430;10.586;2023-07-20T14:02:21;3.85;;;1.20;;
38182;SDS011;23991;52.430;10.586;2023-07-20T14:04:46;1.80;;;1.10;;
38182;SDS011;23991;52.430;10.586;2023-07-20T14:07:16;2.35;;;1.30;;
38182;SDS011;23991;52.430;10.586;2023-07-20T14:09:42;2.55;;;1.10;;
38182;SDS011;23991;52.430;10.586;2023-07-20T14:12:07;1.10;;;0.90;;
38182;SDS011;23991;52.430;10.586;2023-07-20T14:14:36;2.35;;;1.50;;
38182;SDS011;23991;52.430;10.586;2023-07-20T14:17:01;1.80;;;1.17;;
38182;SDS011;23991;52.430;10.586;2023-07-20T14:19:27;2.10;;;1.13;;
38182;SDS011;23991;52.430;10.586;2023-07-20T14:21:54;3.05;;;1.20;;
38182;SDS011;23991;52.430;10.586;2023-07-20T14:24:24;2.05;;;1.30;;
38182;SDS011;23991;52.430;10.586;2023-07-20T14:26:53;2.45;;;1.10;;
38182;SDS011;23991;52.430;10.586;2023-07-20T14:29:22;1.80;;;1.17;;
38182;SDS011;23991;52.430;10.586;2023-07-20T14:31:48;3.83;;;1.13;;
38182;SDS011;23991;52.430;10.586;2023-07-20T14:34:16;2.05;;;1.52;;
38182;SDS011;23991;52.430;10.586;2023-07-20T14:36:43;4.10;;;1.73;;
38182;SDS011;23991;52.430;10.586;2023-07-20T14:39:10;2.88;;;1.40;;
38182;SDS011;23991;52.430;10.586;2023-07-20T14:41:36;3.70;;;1.70;;
38182;SDS011;23991;52.430;10.586;2023-07-20T14:44:02;3.17;;;1.70;;
38182;SDS011;23991;52.430;10.586;2023-07-20T14:46:28;2.38;;;1.40;;
38182;SDS011;23991;52.430;10.586;2023-07-20T14:48:54;2.35;;;1.40;;
38182;SDS011;23991;52.430;10.586;2023-07-20T14:51:23;4.05;;;1.48;;
38182;SDS011;23991;52.430;10.586;2023-07-20T14:54:09;5.00;;;1.73;;
38182;SDS011;23991;52.430;10.586;2023-07-20T14:59:03;2.65;;;1.50;;
38182;SDS011;23991;52.430;10.586;2023-07-20T15:01:29;2.30;;;1.33;;
38182;SDS011;23991;52.430;10.586;2023-07-20T15:03:56;4.10;;;1.58;;
38182;SDS011;23991;52.430;10.586;2023-07-20T15:06:21;3.05;;;1.50;;
38182;SDS011;23991;52.430;10.586;2023-07-20T15:08:47;3.17;;;1.60;;
38182;SDS011;23991;52.430;10.586;2023-07-20T15:11:13;4.80;;;1.50;;